createdAt,value
2023-02-20T00:03:43.499Z,34.58
2023-02-20T00:08:49.509Z,42.22
2023-02-20T00:19:00.750Z,47.58
2023-02-20T00:24:06.871Z,62.85
2023-02-20T00:34:18.077Z,31.17
2023-02-20T00:39:24.068Z,38.92
2023-02-20T00:44:30.004Z,50.72
2023-02-20T00:49:35.937Z,35.38
2023-02-20T00:54:52.516Z,35.47
2023-02-20T00:59:58.650Z,37.42
2023-02-20T01:05:04.493Z,40.30
2023-02-20T01:10:11.063Z,45.97
2023-02-20T01:15:18.918Z,28.27
2023-02-20T01:20:24.871Z,32.85
2023-02-20T01:25:33.278Z,34.28
2023-02-20T01:30:39.330Z,39.28
2023-02-20T01:35:45.732Z,46.75
2023-02-20T01:40:52.964Z,47.67
2023-02-20T01:46:31.490Z,55.60
2023-02-20T01:51:41.668Z,42.17
2023-02-20T01:56:49.451Z,56.92
2023-02-20T02:01:55.815Z,48.88
2023-02-20T02:07:02.226Z,58.25
2023-02-20T02:12:08.989Z,47.65
2023-02-20T02:17:25.494Z,51.35
2023-02-20T02:23:03.219Z,53.95
2023-02-20T02:28:26.972Z,58.25
2023-02-20T02:33:43.032Z,56.42
2023-02-20T02:38:49.601Z,57.58
2023-02-20T02:44:13.843Z,58.38
2023-02-20T02:49:29.090Z,64.35
2023-02-20T02:54:35.892Z,67.97
2023-02-20T02:59:42.372Z,52.22
2023-02-20T03:04:52.209Z,59.40
2023-02-20T03:10:05.219Z,63.10
2023-02-20T03:15:39.266Z,64.88
2023-02-20T03:21:10.085Z,52.65
2023-02-20T03:26:24.252Z,59.38
2023-02-20T03:31:36.997Z,63.40
2023-02-20T03:37:22.189Z,51.80
2023-02-20T03:42:48.827Z,58.15
2023-02-20T03:48:09.614Z,63.53
2023-02-20T03:53:17.047Z,53.85
2023-02-20T03:58:26.538Z,50.70
2023-02-20T04:03:40.603Z,53.00
2023-02-20T04:09:04.074Z,53.28
2023-02-20T04:14:12.889Z,59.13
2023-02-20T04:19:20.336Z,56.63
2023-02-20T04:24:43.677Z,48.85
2023-02-20T04:29:50.493Z,44.78
2023-02-20T04:40:02.565Z,50.40
2023-02-20T04:45:10.278Z,44.13
2023-02-20T04:50:35.850Z,44.33
2023-02-20T04:55:45.573Z,45.22
2023-02-20T05:00:55.269Z,42.13
2023-02-20T05:06:00.819Z,48.60
2023-02-20T05:11:06.639Z,42.37
2023-02-20T05:16:12.321Z,45.67
2023-02-20T05:21:35.976Z,54.35
2023-02-20T05:26:42.490Z,43.70
2023-02-20T05:36:58.695Z,47.63
2023-02-20T05:42:04.286Z,39.53
2023-02-20T05:47:09.864Z,43.13
2023-02-20T05:52:15.462Z,37.37
2023-02-20T05:57:21.046Z,44.00
2023-02-20T06:02:26.618Z,41.90
2023-02-20T06:07:32.599Z,34.37
2023-02-20T06:12:38.298Z,29.40
2023-02-20T06:17:44.787Z,43.47
2023-02-20T06:22:53.335Z,39.28
2023-02-20T06:27:59.201Z,42.78
2023-02-20T06:33:05.292Z,40.35
2023-02-20T06:38:11.025Z,42.75
2023-02-20T06:43:16.861Z,46.38
2023-02-20T06:48:22.277Z,35.07
2023-02-20T06:53:27.547Z,46.67
2023-02-20T06:58:33.223Z,47.13
2023-02-20T07:03:38.848Z,57.17
2023-02-20T07:08:44.702Z,44.08
2023-02-20T07:13:49.902Z,41.33
2023-02-20T07:18:57.812Z,28.00
2023-02-20T07:24:03.010Z,45.72
2023-02-20T07:29:09.214Z,38.72
2023-02-20T07:34:14.944Z,36.47
2023-02-20T07:39:23.379Z,43.75
2023-02-20T07:44:28.890Z,49.13
2023-02-20T07:49:36.623Z,55.00
2023-02-20T07:54:46.579Z,48.70
2023-02-20T07:59:52.554Z,45.40
2023-02-20T08:10:10.735Z,50.00
2023-02-20T08:15:23.190Z,63.63
2023-02-20T08:20:30.793Z,56.72
2023-02-20T08:25:37.452Z,62.63
2023-02-20T08:30:43.671Z,59.08
2023-02-20T08:35:55.524Z,59.17
2023-02-20T08:41:01.149Z,71.07
2023-02-20T08:46:09.011Z,66.97
2023-02-20T08:51:15.611Z,72.38
2023-02-20T08:56:24.352Z,67.25
2023-02-20T09:01:29.650Z,69.38
2023-02-20T09:06:34.938Z,71.07
2023-02-20T09:11:40.718Z,76.30
2023-02-20T09:16:46.460Z,71.50
2023-02-20T09:21:52.951Z,73.82
2023-02-20T09:26:58.187Z,81.18
2023-02-20T09:32:03.839Z,73.67
2023-02-20T09:37:10.452Z,73.93
2023-02-20T09:42:39.721Z,63.55
2023-02-20T09:47:54.676Z,79.40
2023-02-20T09:53:20.881Z,76.93
2023-02-20T09:58:52.074Z,70.00
2023-02-20T10:04:17.988Z,75.82
2023-02-20T10:09:23.823Z,82.05
2023-02-20T10:14:39.534Z,85.72
2023-02-20T10:19:51.433Z,83.03
2023-02-20T10:25:12.663Z,80.93
2023-02-20T10:30:34.332Z,75.72
2023-02-20T10:36:02.815Z,88.18
2023-02-20T10:41:29.635Z,85.03
2023-02-20T10:46:49.283Z,76.13
2023-02-20T10:52:02.634Z,94.70
2023-02-20T10:57:21.163Z,90.65
2023-02-20T11:02:30.891Z,82.82
2023-02-20T11:07:51.172Z,87.03
2023-02-20T11:13:04.572Z,120.38
2023-02-20T11:18:39.754Z,91.65
2023-02-20T11:23:47.463Z,89.50
2023-02-20T11:29:23.081Z,91.97
2023-02-20T11:34:33.467Z,116.15
2023-02-20T11:39:40.611Z,100.43
2023-02-20T11:44:50.215Z,110.30
2023-02-20T11:50:21.243Z,104.28
2023-02-20T11:55:37.230Z,100.05
2023-02-20T12:00:52.857Z,110.82
2023-02-20T12:06:34.598Z,100.20
2023-02-20T12:11:47.930Z,92.97
2023-02-20T12:17:38.347Z,99.95
2023-02-20T12:22:55.821Z,115.85
2023-02-20T12:28:40.461Z,115.85
2023-02-20T12:34:31.489Z,122.32
2023-02-20T12:39:48.479Z,96.03
2023-02-20T12:44:59.763Z,92.63
2023-02-20T12:50:30.444Z,97.75
2023-02-20T12:56:12.931Z,108.80
2023-02-20T13:01:34.183Z,105.00
2023-02-20T13:07:21.139Z,110.95
2023-02-20T13:12:27.016Z,109.63
2023-02-20T13:17:52.430Z,117.72
2023-02-20T13:23:27.658Z,127.45
2023-02-20T13:28:39.112Z,121.90
2023-02-20T13:33:50.990Z,126.85
2023-02-20T13:45:30.464Z,132.73
2023-02-20T13:50:45.938Z,146.98
2023-02-20T13:55:52.354Z,116.82
2023-02-20T14:01:03.445Z,135.32
2023-02-20T14:06:23.061Z,118.32
2023-02-20T14:11:39.340Z,106.93
2023-02-20T14:16:53.270Z,105.82
2023-02-20T14:22:38.514Z,103.53
2023-02-20T14:27:45.305Z,105.82
2023-02-20T14:32:58.848Z,98.07
2023-02-20T14:38:17.653Z,94.93
2023-02-20T14:43:29.452Z,93.22
2023-02-20T14:48:46.639Z,109.80
2023-02-20T14:54:26.310Z,88.72
2023-02-20T14:59:40.290Z,84.55
2023-02-20T15:05:14.032Z,83.70
2023-02-20T15:10:39.458Z,94.00
2023-02-20T15:15:55.792Z,90.65
2023-02-20T15:26:32.781Z,86.90
2023-02-20T15:31:38.680Z,99.78
2023-02-20T15:36:44.655Z,93.63
2023-02-20T15:47:27.940Z,92.53
2023-02-20T15:52:34.371Z,94.83
2023-02-20T15:57:40.020Z,105.53
2023-02-20T16:03:13.055Z,84.72
2023-02-20T16:08:23.849Z,87.32
2023-02-20T16:13:40.591Z,89.90
2023-02-20T16:18:46.764Z,83.32
2023-02-20T16:23:53.758Z,87.20
2023-02-20T16:29:03.645Z,86.07
2023-02-20T16:34:20.205Z,76.25
2023-02-20T16:39:27.739Z,74.38
2023-02-20T16:44:40.680Z,83.90
2023-02-20T16:49:46.434Z,79.32
2023-02-20T16:54:53.236Z,84.22
2023-02-20T17:00:01.239Z,98.65
2023-02-20T17:05:12.198Z,84.72
2023-02-20T17:10:18.158Z,91.75
2023-02-20T17:15:25.782Z,85.82
2023-02-20T17:20:31.049Z,90.65
2023-02-20T17:25:37.164Z,86.97
2023-02-20T17:30:45.953Z,89.13
2023-02-20T17:35:51.843Z,81.30
2023-02-20T17:40:59.669Z,89.53
2023-02-20T17:46:05.197Z,85.20
2023-02-20T17:51:11.276Z,85.87
2023-02-20T17:56:19.686Z,79.32
2023-02-20T18:01:28.811Z,76.22
2023-02-20T18:06:35.185Z,78.85
2023-02-20T18:11:44.462Z,80.15
2023-02-20T18:16:50.477Z,85.55
2023-02-20T18:27:02.415Z,93.10
2023-02-20T18:32:08.907Z,84.20
2023-02-20T18:37:15.911Z,88.88
2023-02-20T18:42:21.386Z,82.32
2023-02-20T18:47:27.151Z,83.80
2023-02-20T18:52:32.618Z,88.93
2023-02-20T18:57:38.310Z,82.13
2023-02-20T19:02:44.196Z,86.57
2023-02-20T19:07:50.636Z,83.57
2023-02-20T19:12:56.837Z,89.05
2023-02-20T19:18:02.085Z,83.35
2023-02-20T19:23:08.208Z,82.13
2023-02-20T19:28:13.854Z,92.80
2023-02-20T19:33:19.350Z,93.77
2023-02-20T19:38:25.407Z,88.57
2023-02-20T19:43:31.465Z,89.63
2023-02-20T19:53:42.515Z,102.22
2023-02-20T19:58:48.818Z,84.03
2023-02-20T20:03:54.311Z,97.13
2023-02-20T20:09:12.540Z,106.60
2023-02-20T20:14:21.635Z,109.82
2023-02-20T20:19:27.077Z,102.03
2023-02-20T20:24:32.226Z,98.78
2023-02-20T20:29:37.661Z,89.25
2023-02-20T20:34:47.898Z,95.95
2023-02-20T20:39:58.627Z,91.05
2023-02-20T20:45:04.285Z,104.22
2023-02-20T20:50:10.494Z,107.72
2023-02-20T20:55:16.185Z,104.78
2023-02-20T21:00:27.126Z,96.22
2023-02-20T21:05:35.408Z,113.28
2023-02-20T21:10:40.801Z,108.72
2023-02-20T21:15:46.628Z,119.47
2023-02-20T21:20:52.315Z,114.32
2023-02-20T21:25:57.989Z,101.57
2023-02-20T21:31:03.298Z,107.27
2023-02-20T21:36:09.807Z,110.97
2023-02-20T21:41:37.742Z,110.55
2023-02-20T21:46:43.152Z,116.72
2023-02-20T21:51:49.168Z,109.40
2023-02-20T21:56:54.952Z,112.03
2023-02-20T22:02:00.312Z,106.43
2023-02-20T22:07:23.663Z,115.87
2023-02-20T22:12:47.129Z,101.80
2023-02-20T22:18:10.589Z,96.80
2023-02-20T22:23:33.986Z,82.95
2023-02-20T22:28:58.204Z,98.88
2023-02-20T22:34:21.464Z,98.90
2023-02-20T22:39:46.422Z,88.93
2023-02-20T22:45:10.219Z,89.20
2023-02-20T22:50:34.702Z,103.95
2023-02-20T22:55:57.999Z,110.38
2023-02-20T23:01:21.138Z,112.22
2023-02-20T23:06:44.434Z,106.35
2023-02-20T23:12:08.216Z,134.65
2023-02-20T23:17:37.286Z,147.75
2023-02-20T23:23:01.239Z,142.32
2023-02-20T23:28:36.591Z,138.55
2023-02-20T23:34:00.189Z,115.65
2023-02-20T23:39:24.207Z,117.50
2023-02-20T23:44:47.573Z,95.57
2023-02-20T23:50:17.655Z,118.22
2023-02-20T23:55:41.679Z,113.05
